createdAt,value
2023-02-02T00:02:35.000Z,19.31
2023-02-02T00:07:34.000Z,19.11
2023-02-02T00:12:35.000Z,19.22
2023-02-02T00:17:34.000Z,18.97
2023-02-02T00:22:35.000Z,19.28
2023-02-02T00:27:35.000Z,19.28
2023-02-02T00:32:35.000Z,19.31
2023-02-02T00:37:35.000Z,19.18
2023-02-02T00:42:35.000Z,19.63
2023-02-02T00:47:35.000Z,19.51
2023-02-02T00:52:34.000Z,19.44
2023-02-02T00:57:35.000Z,19.76
2023-02-02T01:02:34.000Z,19.71
2023-02-02T01:07:35.000Z,19.8
2023-02-02T01:12:34.000Z,19.76
2023-02-02T01:17:35.000Z,19.74
2023-02-02T01:22:34.000Z,20.07
2023-02-02T01:27:35.000Z,19.89
2023-02-02T01:32:35.000Z,19.87
2023-02-02T01:37:35.000Z,20.03
2023-02-02T01:42:34.000Z,20.03
2023-02-02T01:47:35.000Z,19.75
2023-02-02T01:52:35.000Z,19.91
2023-02-02T01:57:34.000Z,19.46
2023-02-02T02:07:35.000Z,20.03
2023-02-02T02:12:34.000Z,19.75
2023-02-02T02:17:35.000Z,19.19
2023-02-02T02:22:34.000Z,19.65
2023-02-02T02:27:34.000Z,19.65
2023-02-02T02:32:35.000Z,19.78
2023-02-02T02:37:34.000Z,19.38
2023-02-02T02:42:34.000Z,19.31
2023-02-02T02:47:34.000Z,19.34
2023-02-02T02:52:35.000Z,18.91
2023-02-02T02:57:35.000Z,19.72
2023-02-02T03:02:35.000Z,19.7
2023-02-02T03:07:35.000Z,18.97
2023-02-02T03:12:34.000Z,19.17
2023-02-02T03:22:34.000Z,18.97
2023-02-02T03:27:35.000Z,18.37
2023-02-02T03:32:34.000Z,18.09
2023-02-02T03:37:35.000Z,17.91
2023-02-02T03:42:34.000Z,18.14
2023-02-02T03:47:35.000Z,17.61
2023-02-02T03:52:34.000Z,18
2023-02-02T03:57:35.000Z,17.47
2023-02-02T04:02:35.000Z,17.47
2023-02-02T04:07:35.000Z,17.19
2023-02-02T04:12:35.000Z,17.17
2023-02-02T04:22:34.000Z,17.26
2023-02-02T04:27:35.000Z,16.85
2023-02-02T04:37:34.000Z,17.36
2023-02-02T04:42:34.000Z,16.44
2023-02-02T04:47:35.000Z,16.24
2023-02-02T04:52:35.000Z,15.91
2023-02-02T04:57:35.000Z,15.63
2023-02-02T05:02:35.000Z,15.63
2023-02-02T05:07:34.000Z,15.66
2023-02-02T05:12:35.000Z,15.96
2023-02-02T05:17:35.000Z,15.04
2023-02-02T05:22:34.000Z,14.93
2023-02-02T05:27:35.000Z,14.84
2023-02-02T05:32:34.000Z,14.53
2023-02-02T05:37:35.000Z,15.54
2023-02-02T05:42:35.000Z,15.57
2023-02-02T05:47:35.000Z,15.52
2023-02-02T05:52:35.000Z,15.33
2023-02-02T05:57:34.000Z,15.37
2023-02-02T06:02:35.000Z,15.76
2023-02-02T06:07:34.000Z,15.76
2023-02-02T06:12:35.000Z,15.87
2023-02-02T06:17:34.000Z,15.44
2023-02-02T06:22:35.000Z,16.19
2023-02-02T06:27:34.000Z,15.86
2023-02-02T06:32:35.000Z,15.41
2023-02-02T06:37:34.000Z,16.28
2023-02-02T06:42:35.000Z,16.36
2023-02-02T06:47:36.000Z,16.06
2023-02-02T06:52:35.000Z,16.03
2023-02-02T06:57:35.000Z,16.74
2023-02-02T07:02:34.000Z,16.02
2023-02-02T07:07:34.000Z,16.67
2023-02-02T07:12:35.000Z,17.14
2023-02-02T07:17:34.000Z,16.79
2023-02-02T07:22:35.000Z,16.56
2023-02-02T07:27:35.000Z,16.56
2023-02-02T07:32:35.000Z,16.66
2023-02-02T07:37:34.000Z,16.53
2023-02-02T07:42:34.000Z,16.59
2023-02-02T07:47:35.000Z,17.78
2023-02-02T07:52:35.000Z,17.31
2023-02-02T07:57:34.000Z,17.24
2023-02-02T08:02:35.000Z,17.79
2023-02-02T08:07:35.000Z,18.58
2023-02-02T08:22:35.000Z,18.55
2023-02-02T08:27:35.000Z,18.46
2023-02-02T08:32:34.000Z,19.05
2023-02-02T08:37:35.000Z,19.21
2023-02-02T08:42:35.000Z,20.08
2023-02-02T08:47:35.000Z,19.93
2023-02-02T08:52:36.000Z,19.61
2023-02-02T08:57:35.000Z,19.82
2023-02-02T09:02:35.000Z,19.46
2023-02-02T09:07:35.000Z,20.07
2023-02-02T09:12:35.000Z,19.36
2023-02-02T09:17:35.000Z,19.92
2023-02-02T09:22:34.000Z,18.86
2023-02-02T09:27:35.000Z,19.39
2023-02-02T09:32:34.000Z,19.46
2023-02-02T09:37:35.000Z,19.46
2023-02-02T09:42:34.000Z,19.04
2023-02-02T09:47:34.000Z,19.08
2023-02-02T09:57:35.000Z,18.06
2023-02-02T10:02:35.000Z,18.63
2023-02-02T10:12:34.000Z,18.92
2023-02-02T10:17:34.000Z,18.79
2023-02-02T10:22:35.000Z,18.88
2023-02-02T10:27:34.000Z,18.88
2023-02-02T10:32:35.000Z,18.33
2023-02-02T10:37:35.000Z,18.25
2023-02-02T10:42:35.000Z,17.95
2023-02-02T10:47:34.000Z,18.05
2023-02-02T10:52:35.000Z,18.27
2023-02-02T10:57:34.000Z,17.89
2023-02-02T11:02:35.000Z,17.05
2023-02-02T11:07:34.000Z,17.58
2023-02-02T11:12:35.000Z,17.65
2023-02-02T11:17:35.000Z,16.48
2023-02-02T11:22:34.000Z,16.89
2023-02-02T11:27:35.000Z,16.23
2023-02-02T11:32:34.000Z,16.44
2023-02-02T11:37:34.000Z,16.09
2023-02-02T11:42:35.000Z,16.09
2023-02-02T11:47:35.000Z,16.62
2023-02-02T11:52:36.000Z,17.5
2023-02-02T11:57:34.000Z,17.18
2023-02-02T12:02:35.000Z,17.21
2023-02-02T12:07:34.000Z,17.26
2023-02-02T12:12:35.000Z,16.77
2023-02-02T12:17:35.000Z,16.54
2023-02-02T12:22:35.000Z,17.15
2023-02-02T12:27:35.000Z,16.31
2023-02-02T12:32:35.000Z,16.23
2023-02-02T12:37:34.000Z,16.54
2023-02-02T12:42:35.000Z,16.34
2023-02-02T12:47:35.000Z,16.8
2023-02-02T12:52:35.000Z,16.26
2023-02-02T12:57:34.000Z,16.26
2023-02-02T13:02:34.000Z,16.72
2023-02-02T13:07:35.000Z,17
2023-02-02T13:12:34.000Z,17.2
2023-02-02T13:17:34.000Z,16.79
2023-02-02T13:22:35.000Z,17.54
2023-02-02T13:27:35.000Z,17.05
2023-02-02T13:32:35.000Z,17.72
2023-02-02T13:37:35.000Z,17.69
2023-02-02T13:42:35.000Z,18.28
2023-02-02T13:47:35.000Z,18.54
2023-02-02T13:52:35.000Z,18.88
2023-02-02T13:57:35.000Z,20.03
2023-02-02T14:02:35.000Z,19.74
2023-02-02T14:07:34.000Z,19.69
2023-02-02T14:12:35.000Z,19.69
2023-02-02T14:17:35.000Z,20.01
2023-02-02T14:22:35.000Z,19.59
2023-02-02T14:27:35.000Z,19.64
2023-02-02T14:32:35.000Z,19.63
2023-02-02T14:37:35.000Z,19.84
2023-02-02T14:42:34.000Z,19.51
2023-02-02T14:47:35.000Z,19.45
2023-02-02T14:52:34.000Z,19.78
2023-02-02T14:57:35.000Z,19.15
2023-02-02T15:02:35.000Z,19.3
2023-02-02T15:07:35.000Z,19.41
2023-02-02T15:12:34.000Z,19.73
2023-02-02T15:17:35.000Z,19.18
2023-02-02T15:22:35.000Z,19.66
2023-02-02T15:27:35.000Z,19.66
2023-02-02T15:32:35.000Z,19.52
2023-02-02T15:37:34.000Z,19.63
2023-02-02T15:42:35.000Z,19.15
2023-02-02T15:47:35.000Z,19.3
2023-02-02T15:52:35.000Z,19.66
2023-02-02T15:57:34.000Z,19.61
2023-02-02T16:02:34.000Z,19.23
2023-02-02T16:07:34.000Z,19.4
2023-02-02T16:12:34.000Z,19.38
2023-02-02T16:17:34.000Z,19.78
2023-02-02T16:22:35.000Z,19.52
2023-02-02T16:27:34.000Z,19.04
2023-02-02T16:32:35.000Z,19.07
2023-02-02T16:37:35.000Z,19.07
2023-02-02T16:42:34.000Z,19.93
2023-02-02T16:47:35.000Z,19.2
2023-02-02T16:52:34.000Z,18.72
2023-02-02T16:57:35.000Z,19.35
2023-02-02T17:02:35.000Z,19.17
2023-02-02T17:07:35.000Z,19.01
2023-02-02T17:12:44.000Z,18.63
2023-02-02T17:17:35.000Z,18.92
2023-02-02T17:22:34.000Z,19.39
2023-02-02T17:27:35.000Z,18.92
2023-02-02T17:32:35.000Z,19.2
2023-02-02T17:37:34.000Z,18.82
2023-02-02T17:42:34.000Z,18.56
2023-02-02T17:47:35.000Z,18.71
2023-02-02T17:52:34.000Z,18.71
2023-02-02T17:57:35.000Z,18.34
2023-02-02T18:02:34.000Z,18.34
2023-02-02T18:17:34.000Z,17.14
2023-02-02T18:22:35.000Z,18.68
2023-02-02T18:27:35.000Z,18.47
2023-02-02T18:32:34.000Z,18.52
2023-02-02T18:37:34.000Z,18.85
2023-02-02T18:42:36.000Z,19.22
2023-02-02T18:47:35.000Z,18.59
2023-02-02T18:57:34.000Z,19.18
2023-02-02T19:02:35.000Z,18.98
2023-02-02T19:07:34.000Z,18.59
2023-02-02T19:12:35.000Z,19.16
2023-02-02T19:17:34.000Z,19.77
2023-02-02T19:22:35.000Z,19.21
2023-02-02T19:27:35.000Z,19.48
2023-02-02T19:32:34.000Z,19.08
2023-02-02T19:37:36.000Z,19.13
2023-02-02T19:42:34.000Z,19.13
2023-02-02T19:47:35.000Z,19.59
2023-02-02T19:52:35.000Z,19.98
2023-02-02T19:57:35.000Z,19.9
2023-02-02T20:02:35.000Z,19.6
2023-02-02T20:07:34.000Z,20.26
2023-02-02T20:12:35.000Z,21.13
2023-02-02T20:17:34.000Z,21.33
2023-02-02T20:22:35.000Z,20.99
2023-02-02T20:27:35.000Z,21.05
2023-02-02T20:32:34.000Z,20.79
2023-02-02T20:37:35.000Z,20.81
2023-02-02T20:42:35.000Z,21.62
2023-02-02T20:47:34.000Z,20.07
2023-02-02T20:52:35.000Z,20.15
2023-02-02T20:57:34.000Z,20.15
2023-02-02T21:02:35.000Z,20.2
2023-02-02T21:07:34.000Z,20.57
2023-02-02T21:12:34.000Z,20.4
2023-02-02T21:17:35.000Z,19.97
2023-02-02T21:22:34.000Z,20.31
2023-02-02T21:27:35.000Z,19.98
2023-02-02T21:32:34.000Z,20.24
2023-02-02T21:37:35.000Z,20.2
2023-02-02T21:42:34.000Z,19.74
2023-02-02T21:47:35.000Z,19.87
2023-02-02T21:57:34.000Z,19.78
2023-02-02T22:02:35.000Z,20.19
2023-02-02T22:07:34.000Z,20.11
2023-02-02T22:12:35.000Z,20.11
2023-02-02T22:17:34.000Z,19.98
2023-02-02T22:22:35.000Z,20.46
2023-02-02T22:27:34.000Z,20.21
2023-02-02T22:32:35.000Z,20.13
2023-02-02T22:37:34.000Z,20.1
2023-02-02T22:42:35.000Z,20.2
2023-02-02T22:47:34.000Z,19.95
2023-02-02T22:52:35.000Z,20.47
2023-02-02T22:57:34.000Z,20.38
2023-02-02T23:02:35.000Z,20.14
2023-02-02T23:07:35.000Z,20.39
2023-02-02T23:12:34.000Z,20.36
2023-02-02T23:17:35.000Z,20.27
2023-02-02T23:22:35.000Z,20.41
2023-02-02T23:27:34.000Z,20.41
2023-02-02T23:32:35.000Z,19.69
2023-02-02T23:37:34.000Z,20.2
2023-02-02T23:42:34.000Z,20.28
2023-02-02T23:47:34.000Z,19.91
2023-02-02T23:52:35.000Z,20.71
2023-02-02T23:57:35.000Z,19.65
